Ingham Composite, Queensland

10:25 AM AEST on September 28, 2016 (GMT +1000)
Tara Live Weather | | Change Station

Elev 52 ft 18.63 °S, 146.15 °E | Updated 18 seconds ago

Scattered Clouds
Scattered Clouds
80.7 °F
Feels Like 85 °F
N
4.0
Wind Variable Wind from NNE
Gusts 14.0 mph

Today
High -- | Low -- °F
--% Chance of Precip.
Yesterday
High -- | Low -- °F
Precip. -- in
Pressure 29.95 in
Visibility 6.2 miles
Clouds Scattered Clouds 3300 ft
Scattered Clouds 5500 ft
Heat Index 85 °F
Dew Point 73 °F
Humidity 77%
Rainfall 0.00 in
Snow Depth Not available.
5:59 AM 6:12 PM
Waning Crescent, 9% visible
METAR YBTL 280000Z 08011KT 9999 SCT033 SCT055 28/18 Q1014 NOSIG
Pressure 29.95 in
Visibility 6.2 miles
Clouds Scattered Clouds 3300 ft
Scattered Clouds 5500 ft
Heat Index 85 °F
Dew Point 73 °F
Humidity 77%
Rainfall 0.00 in
Snow Depth Not available.
5:59 AM 6:12 PM
Waning Crescent, 9% visible
METAR YBTL 280000Z 08011KT 9999 SCT033 SCT055 28/18 Q1014 NOSIG

10-Day Weather Forecast

Almanac

Astronomy

Sep. 28, 2016 Rise Set
Actual Time
Civil Twilight
Nautical Twilight
Astronomical Twilight
Moon
Length of Visible Light
Length of Day
Tomorrow will be .
, % of the Moon is Illuminated

Today's Extremes

Country Highs Country Lows

Community

WunderPhotos

Upload Photos

1,942,179 photos uploaded!

WunderBlog® & News

Nearby

Air Quality

  Air Quality AQ Index Pollutant
Not available.

Snow Depth

Station Depth Elevation

Earthquake Activity

City Distance Mag. Time & Date
Minimum magnitude displayed is 2.5.

Coastal Water Temperatures

Place Temperature

Stations

Nearby Weather Stations

Station Location Temp. Windchill Dew Point Humidity Wind Precip. Elev Updated Type